Portada
METAR-TAF:

METAR-TAF

Aeroports :

Dehradun, Índia

latitud: 30-11-23N, longitud: 78-10-49E, altitud: 558 m

METAR: manca

Hora: 18:26 (12:56 UTC)

Pronòstic

L'informe es va fer fa 1 hora i 56 minuts, a les 11:00 UTC
Pronòstic vàlid del 17 a les 12 UTC al 17 a les 21 UTC
Vent 6 kt del Oest/Sud-Oest
Visibilitat: 3500 m
Escasses núvols a una alçada de 3000 ft
calitja
Evolucionant progressivament
l' 17 a les 18 UTC al 17 a les 20 UTC
Vent 2 kt amb direcció variable
Visibilitat: 2500 m
boirina

TAF: VIDN 171100Z 1712/1721 25006KT 3500 HZ FEW030 BECMG 1718/1720 VRB02KT 2500 BR

Observacions i pronòstics meteorològics de més de 4000 aeroports (METAR i TAF).

Les estacions disponibles són els punts grocs i vermells al mapa.

Posi el ratolí al punt desitjat per veure el nom de l'estació.

Feu clic per veure les observacions i els pronòstics meteorològics.

Per canviar el mapa: feu clic els botons verds amb una creu de color negre per apropar; al botó verd amb un guió per allunyar la imatge; o en les fletxes verdes per a mapes adjacents.


METAR-TAF: